Lamaline, Canada
Current Conditions -  °F | °C
As of 6:00 AM on Friday 24 Oct 2014 (Local Time) from LFVP Reporting Station
Overcast Overcast  
Wind Chill: 52°   Ceiling: 700
Heat Index: 52°   Visibility: 6mi
Dew Point: 50°   Wind: 22mph
Humidity: 94%   Direction: 70°ENE
Pressure: 29.88"   Gusts: NA
Location:  46.87°N, 55.79°W
Report Text: LFVP 240800Z 07019KT 9999 OVC007 11/10 Q1012 NOSIG
Loading
Personal Weather Stations






























Interactive Weather Map
Tropical Storm Tracking
New forecast layout! Learn more

10-Day Weather Forecast

Advertisements
Track Severe Weather on mobile